Time;durP1;ratioP1;P1;durP2;ratioP2;P2;SDS_P1;SDS_P2;PMS_P1;PMS_P2;Temp;Humidity;BMP_temperature;BMP_pressure;BME280_temperature;BME280_humidity;BME280_pressure;Samples;Min_cycle;Max_cycle;Signal;HPM_P1;HPM_P2
2022/06/14 00:01:54;;;;;;;8.02;3.47;;;;;;;14.88;54.02;99524.34;2618596;54;20042;-65
2022/06/14 00:04:24;;;;;;;5.35;3.53;;;;;;;14.61;54.63;99525.13;2618395;54;20030;-63
2022/06/14 00:06:54;;;;;;;7.20;3.80;;;;;;;14.69;54.80;99521.44;2618544;54;20030;-65
2022/06/14 00:09:23;;;;;;;5.95;3.92;;;;;;;14.85;54.62;99526.38;2618231;54;20033;-65
2022/06/14 00:11:53;;;;;;;8.80;3.95;;;;;;;14.95;54.74;99527.84;2618446;54;20542;-62
2022/06/14 00:14:22;;;;;;;7.00;3.97;;;;;;;14.76;54.42;99532.09;2618362;47;20030;-63
2022/06/14 00:16:54;;;;;;;5.72;3.67;;;;;;;14.66;55.09;99529.84;2618674;54;20042;-64
2022/06/14 00:19:24;;;;;;;6.60;3.88;;;;;;;14.72;55.27;99534.34;2618575;54;20041;-63
2022/06/14 00:21:56;;;;;;;6.65;4.07;;;;;;;14.73;54.80;99527.19;2619279;54;20041;-64
2022/06/14 00:24:26;;;;;;;6.82;3.90;;;;;;;14.59;54.90;99527.16;2620353;54;20042;-64
2022/06/14 00:26:56;;;;;;;6.18;3.78;;;;;;;14.40;54.80;99527.88;2620615;54;20026;-63
2022/06/14 00:29:25;;;;;;;5.65;3.63;;;;;;;14.30;55.32;99522.94;2620008;54;20034;-64
2022/06/14 00:31:57;;;;;;;8.25;4.78;;;;;;;14.22;55.55;99525.78;2620246;54;20046;-64
2022/06/14 00:34:27;;;;;;;6.78;3.88;;;;;;;13.93;56.24;99532.19;2620081;54;20019;-64
2022/06/14 00:36:59;;;;;;;12.05;4.63;;;;;;;14.05;56.59;99524.47;2620330;54;20041;-64
2022/06/14 00:39:29;;;;;;;7.40;3.95;;;;;;;14.15;56.09;99527.56;2620136;54;20149;-63
2022/06/14 00:41:59;;;;;;;8.98;3.92;;;;;;;14.06;56.27;99524.25;2620978;54;20050;-64
2022/06/14 00:44:31;;;;;;;6.00;4.07;;;;;;;13.95;55.99;99530.13;2620507;54;20035;-64
2022/06/14 00:47:06;;;;;;;9.13;4.40;;;;;;;13.81;56.33;99521.28;2617183;47;20031;-65
2022/06/14 00:49:41;;;;;;;7.55;4.63;;;;;;;13.77;56.90;99514.72;2617666;54;20038;-63
2022/06/14 00:52:19;;;;;;;7.22;4.35;;;;;;;13.76;56.85;99517.56;2617994;54;20045;-63
2022/06/14 00:54:53;;;;;;;5.38;3.90;;;;;;;13.72;57.45;99516.31;2618834;39;20454;-64
2022/06/14 00:57:25;;;;;;;;;;;;;;;13.76;57.28;99515.75;2618510;54;20034;-64
2022/06/14 00:59:59;;;;;;;5.25;4.20;;;;;;;13.87;57.43;99511.69;2622371;47;19957;-64
2022/06/14 01:02:35;;;;;;;7.80;4.13;;;;;;;13.85;57.29;99506.59;2622545;54;20045;-65
2022/06/14 01:05:08;;;;;;;7.15;4.45;;;;;;;13.86;57.29;99504.75;2618324;54;20053;-63
2022/06/14 01:07:42;;;;;;;6.60;4.78;;;;;;;13.84;57.36;99509.44;2618338;54;20042;-63
2022/06/14 01:10:17;;;;;;;7.07;3.85;;;;;;;13.89;57.39;99504.34;2618301;54;20038;-63
2022/06/14 01:12:50;;;;;;;4.30;3.83;;;;;;;13.82;57.35;99506.97;2618243;54;20030;-64
2022/06/14 01:15:22;;;;;;;8.48;4.53;;;;;;;13.69;57.49;99495.47;2618554;46;20060;-63
2022/06/14 01:17:59;;;;;;;7.65;4.68;;;;;;;13.41;58.03;99516.72;2618043;54;20053;-64
2022/06/14 01:20:30;;;;;;;4.97;4.38;;;;;;;13.42;58.36;99515.69;2617928;54;20526;-63
2022/06/14 01:23:03;;;;;;;10.68;4.32;;;;;;;13.49;58.41;99509.44;2618620;54;20065;-65
2022/06/14 01:25:36;;;;;;;5.55;4.30;;;;;;;13.51;58.02;99504.75;2619082;54;20034;-64
2022/06/14 01:28:07;;;;;;;6.57;4.18;;;;;;;13.53;58.00;99505.38;2619113;39;20414;-64
2022/06/14 01:30:42;;;;;;;8.75;4.75;;;;;;;13.48;58.04;99507.78;2619543;39;20435;-64
2022/06/14 01:33:16;;;;;;;5.50;4.63;;;;;;;13.47;58.50;99505.31;2619116;54;20031;-64
2022/06/14 01:35:51;;;;;;;6.32;4.43;;;;;;;13.34;58.36;99496.25;2619341;54;20018;-63
2022/06/14 01:38:23;;;;;;;6.82;4.03;;;;;;;13.38;58.76;99504.63;2619465;39;20442;-63
2022/06/14 01:41:01;;;;;;;7.22;4.55;;;;;;;13.42;58.80;99505.09;2619301;54;20565;-64
2022/06/14 01:43:59;;;;;;;6.57;5.20;;;;;;;13.38;58.28;99508.13;2619169;54;20034;-63
2022/06/14 01:46:32;;;;;;;8.77;4.88;;;;;;;13.13;58.82;99505.03;2619311;46;20098;-64
2022/06/14 01:52:21;;;;;;;6.53;4.75;;;;;;;13.09;59.38;99516.22;2619048;39;20404;-63
2022/06/14 01:55:00;;;;;;;7.90;4.82;;;;;;;12.85;60.01;99512.94;2619611;39;20430;-64
2022/06/14 01:57:36;;;;;;;7.65;4.72;;;;;;;12.96;59.74;99511.63;2619334;39;20450;-64
2022/06/14 02:00:11;;;;;;;9.25;5.03;;;;;;;13.04;59.48;99516.81;2618998;54;20042;-65
2022/06/14 02:02:48;;;;;;;7.25;4.03;;;;;;;13.01;59.54;99516.38;2618495;47;20066;-63
2022/06/14 02:05:21;;;;;;;6.72;4.47;;;;;;;12.92;60.02;99517.53;2618606;54;20081;-65
2022/06/14 02:08:01;;;;;;;7.35;4.55;;;;;;;12.97;59.94;99517.75;2619174;39;20700;-65
2022/06/14 02:10:38;;;;;;;6.85;4.45;;;;;;;12.94;59.98;99513.66;2619175;39;20422;-64
2022/06/14 02:13:15;;;;;;;5.65;4.43;;;;;;;12.84;59.80;99518.47;2619032;54;20061;-65
2022/06/14 02:15:50;;;;;;;7.55;5.10;;;;;;;12.64;60.26;99512.94;2618923;54;20030;-64
2022/06/14 02:18:27;;;;;;;6.63;5.07;;;;;;;12.58;60.42;99511.88;2618556;54;20035;-64
2022/06/14 02:21:03;;;;;;;7.00;4.70;;;;;;;12.52;61.05;99509.97;2618810;54;20033;-65
2022/06/14 02:23:39;;;;;;;13.63;9.07;;;;;;;12.62;60.95;99501.72;2618697;54;20031;-65
2022/06/14 02:26:17;;;;;;;7.97;5.07;;;;;;;12.60;60.84;99507.19;2619207;39;20430;-64
2022/06/14 02:28:52;;;;;;;8.20;4.70;;;;;;;12.74;60.79;99512.66;2618901;54;20026;-64
2022/06/14 02:31:25;;;;;;;9.10;5.50;;;;;;;12.82;60.72;99513.34;2618903;54;20042;-64
2022/06/14 02:33:59;;;;;;;;;;;;;;;12.63;60.05;99512.13;2618893;54;20022;-64
2022/06/14 02:36:34;;;;;;;8.57;4.60;;;;;;;12.36;60.98;99513.66;2618808;54;19968;-64
2022/06/14 02:39:15;;;;;;;7.30;5.13;;;;;;;12.32;61.06;99508.94;2618626;54;20065;-64
2022/06/14 02:41:59;;;;;;;9.23;5.93;;;;;;;12.17;61.24;99514.28;2619016;54;20045;-64
2022/06/14 02:44:36;;;;;;;6.30;5.07;;;;;;;12.14;61.49;99510.16;2618871;54;20030;-65
2022/06/14 02:47:10;;;;;;;8.30;6.03;;;;;;;12.15;61.56;99509.16;2618943;54;20038;-64
2022/06/14 02:49:45;;;;;;;6.00;5.13;;;;;;;12.19;61.30;99512.25;2618120;54;20543;-64
2022/06/14 02:52:21;;;;;;;7.40;4.70;;;;;;;12.14;61.28;99507.50;2618108;54;20034;-67
2022/06/14 02:54:57;;;;;;;7.45;4.28;;;;;;;12.13;61.75;99505.06;2619019;54;20034;-65
2022/06/14 02:57:38;;;;;;;9.40;5.68;;;;;;;12.25;61.61;99503.56;2618325;54;20053;-66
2022/06/14 03:00:12;;;;;;;8.32;5.90;;;;;;;12.32;61.47;99509.75;2618730;54;20031;-65
2022/06/14 03:02:50;;;;;;;5.82;4.97;;;;;;;12.40;61.49;99495.56;2618873;54;20026;-65
2022/06/14 03:05:29;;;;;;;7.85;5.38;;;;;;;12.40;61.39;99503.50;2618369;54;20027;-65
2022/06/14 03:08:04;;;;;;;8.00;5.03;;;;;;;12.29;60.80;99499.53;2618564;54;20038;-65
2022/06/14 03:10:41;;;;;;;7.97;4.75;;;;;;;12.31;61.48;99494.84;2622067;54;20037;-65
2022/06/14 03:13:23;;;;;;;6.35;4.30;;;;;;;12.40;61.26;99501.69;2623168;39;20507;-65
2022/06/14 03:15:58;;;;;;;9.23;5.20;;;;;;;12.49;60.74;99498.91;2622980;54;20034;-64
2022/06/14 03:18:37;;;;;;;5.22;4.32;;;;;;;12.53;60.61;99502.84;2622196;54;20045;-64
2022/06/14 03:21:13;;;;;;;7.07;4.57;;;;;;;12.46;60.34;99499.31;2622023;54;20033;-64
2022/06/14 03:23:47;;;;;;;6.00;4.60;;;;;;;12.33;61.04;99502.66;2619461;54;20611;-64
2022/06/14 03:26:23;;;;;;;6.72;4.43;;;;;;;12.27;60.86;99500.72;2618540;47;20050;-64
2022/06/14 03:29:01;;;;;;;7.32;4.40;;;;;;;12.21;60.59;99504.94;2619525;54;20030;-64
2022/06/14 03:31:35;;;;;;;6.63;3.67;;;;;;;12.25;61.03;99502.75;2622283;54;20030;-64
2022/06/14 03:34:10;;;;;;;7.03;4.82;;;;;;;12.34;60.75;99505.09;2622556;54;20026;-64
2022/06/14 03:36:41;;;;;;;6.32;4.70;;;;;;;12.30;60.71;99505.66;2622870;54;20037;-64
2022/06/14 03:39:13;;;;;;;5.97;4.75;;;;;;;12.12;60.54;99506.03;2621313;54;20030;-64
2022/06/14 03:41:47;;;;;;;5.00;4.47;;;;;;;11.96;60.74;99506.25;2620988;46;20046;-64
2022/06/14 03:44:22;;;;;;;6.95;4.55;;;;;;;11.85;61.54;99504.91;2620606;54;20027;-64
2022/06/14 03:46:54;;;;;;;6.50;4.93;;;;;;;11.82;61.56;99503.41;2621426;54;20046;-65
2022/06/14 03:49:26;;;;;;;5.50;4.22;;;;;;;11.87;61.70;99511.63;2620823;54;20594;-65
2022/06/14 03:52:02;;;;;;;10.43;4.75;;;;;;;11.92;61.43;99512.91;2619954;47;20050;-65
2022/06/14 03:54:50;;;;;;;6.10;4.47;;;;;;;11.87;61.00;99514.28;2620348;54;20031;-64
2022/06/14 03:57:39;;;;;;;6.43;4.05;;;;;;;11.83;61.07;99512.19;2620532;54;20035;-64
2022/06/14 04:00:19;;;;;;;4.20;3.67;;;;;;;11.79;61.46;99506.41;2620702;54;20558;-65
2022/06/14 04:03:14;;;;;;;8.93;4.70;;;;;;;11.73;61.26;99501.84;2620593;54;20543;-63
2022/06/14 04:05:56;;;;;;;7.90;4.40;;;;;;;11.70;61.31;99509.34;2620505;54;20018;-64
2022/06/14 04:08:44;;;;;;;7.22;5.00;;;;;;;11.60;61.57;99499.03;2620054;39;20435;-64
2022/06/14 04:11:23;;;;;;;5.18;4.53;;;;;;;11.69;61.78;99502.41;2620082;39;20434;-63
2022/06/14 04:14:11;;;;;;;6.85;4.60;;;;;;;11.76;61.86;99496.19;2618781;54;20568;-64
2022/06/14 04:16:54;;;;;;;5.43;4.05;;;;;;;11.92;61.58;99500.50;2618860;54;20038;-64
2022/06/14 04:19:36;;;;;;;5.82;3.92;;;;;;;11.97;60.88;99503.44;2618285;54;20042;-64
2022/06/14 04:22:21;;;;;;;4.95;3.75;;;;;;;12.12;60.66;99498.09;2618433;54;20027;-63
2022/06/14 04:24:55;;;;;;;5.22;4.15;;;;;;;12.27;60.39;99495.41;2618384;54;20038;-64
2022/06/14 04:27:35;;;;;;;4.35;3.95;;;;;;;12.30;59.94;99500.34;2618224;54;20045;-65
2022/06/14 04:30:11;;;;;;;5.28;4.20;;;;;;;12.23;60.03;99500.28;2619420;39;20466;-63
2022/06/14 04:32:49;;;;;;;5.93;4.00;;;;;;;12.21;60.59;99501.47;2618321;47;20550;-62
2022/06/14 04:35:22;;;;;;;5.75;4.07;;;;;;;12.31;60.43;99505.47;2618690;54;20022;-63
2022/06/14 04:37:57;;;;;;;6.18;4.55;;;;;;;12.36;60.16;99510.19;2618339;54;20038;-63
2022/06/14 04:40:32;;;;;;;6.65;4.80;;;;;;;12.48;59.93;99502.59;2618569;46;20527;-63
2022/06/14 04:43:06;;;;;;;7.78;4.30;;;;;;;12.51;59.48;99502.22;2618479;54;20034;-63
2022/06/14 04:45:41;;;;;;;4.68;3.92;;;;;;;12.66;59.83;99499.53;2618523;54;20069;-63
2022/06/14 04:48:18;;;;;;;5.07;4.13;;;;;;;12.76;59.53;99502.66;2618362;54;20074;-62
2022/06/14 04:50:52;;;;;;;6.32;4.07;;;;;;;12.83;59.75;99498.25;2618523;54;20609;-67
2022/06/14 04:53:26;;;;;;;5.82;4.30;;;;;;;13.09;58.92;99502.97;2618316;54;20055;-63
2022/06/14 04:56:01;;;;;;;7.10;4.45;;;;;;;13.14;58.42;99496.09;2617734;47;20023;-63
2022/06/14 04:58:38;;;;;;;9.82;4.78;;;;;;;13.13;58.45;99493.59;2617934;54;20026;-63
2022/06/14 05:01:14;;;;;;;8.23;4.55;;;;;;;13.29;58.93;99492.53;2617666;54;20038;-65
2022/06/14 05:03:54;;;;;;;7.30;4.70;;;;;;;13.42;58.58;99489.97;2617578;54;20047;-65
2022/06/14 05:06:30;;;;;;;6.18;4.90;;;;;;;13.65;58.00;99486.25;2617697;54;20026;-63
2022/06/14 05:09:05;;;;;;;5.88;4.50;;;;;;;13.51;57.62;99487.97;2618241;54;20030;-63
2022/06/14 05:11:42;;;;;;;7.10;4.35;;;;;;;13.51;58.45;99490.63;2618343;54;20045;-64
2022/06/14 05:14:17;;;;;;;7.72;4.65;;;;;;;13.65;57.72;99491.56;2618340;54;20026;-63
2022/06/14 05:16:49;;;;;;;5.82;4.53;;;;;;;13.82;57.66;99496.34;2618498;54;20050;-63
2022/06/14 05:19:26;;;;;;;6.18;4.43;;;;;;;14.00;57.00;99493.16;2618156;54;20089;-64
2022/06/14 05:22:02;;;;;;;4.63;4.07;;;;;;;14.13;56.70;99495.88;2618453;54;20030;-63
2022/06/14 05:24:33;;;;;;;8.07;4.80;;;;;;;14.22;56.09;99485.06;2618487;54;20074;-64
2022/06/14 05:27:32;;;;;;;7.63;4.05;;;;;;;14.24;56.27;99486.50;2617839;54;20038;-64
2022/06/14 05:30:08;;;;;;;8.52;4.05;;;;;;;14.34;55.95;99483.47;2618434;54;20539;-63
2022/06/14 05:32:48;;;;;;;6.07;4.10;;;;;;;14.42;55.48;99475.31;2618616;54;20038;-64
2022/06/14 05:35:31;;;;;;;8.63;6.32;;;;;;;14.54;55.42;99480.91;2618313;54;20031;-64
2022/06/14 05:38:13;;;;;;;9.38;4.50;;;;;;;14.70;55.57;99475.19;2618221;54;20065;-64
2022/06/14 05:40:50;;;;;;;6.25;4.60;;;;;;;14.82;55.12;99476.22;2619893;54;20030;-63
2022/06/14 05:43:28;;;;;;;7.68;4.07;;;;;;;14.92;54.44;99475.00;2622184;54;20038;-65
2022/06/14 05:46:02;;;;;;;7.35;4.35;;;;;;;14.96;54.36;99470.91;2622007;54;20038;-64
2022/06/14 05:48:35;;;;;;;7.07;4.45;;;;;;;14.92;54.25;99478.47;2622024;54;20151;-65
2022/06/14 05:51:11;;;;;;;6.45;4.10;;;;;;;14.90;54.29;99475.22;2619225;54;20026;-65
2022/06/14 05:53:44;;;;;;;6.82;4.63;;;;;;;15.13;54.11;99474.78;2618161;54;20039;-64
2022/06/14 05:56:22;;;;;;;5.82;4.45;;;;;;;15.35;53.54;99478.06;2617972;54;20041;-65
2022/06/14 05:58:58;;;;;;;6.95;4.05;;;;;;;15.39;53.03;99473.97;2617965;54;20030;-65
2022/06/14 06:01:36;;;;;;;6.60;3.00;;;;;;;15.47;52.76;99465.75;2618005;54;20114;-65
2022/06/14 06:04:13;;;;;;;5.43;3.00;;;;;;;15.50;52.32;99459.97;2617938;54;20593;-65
2022/06/14 06:06:49;;;;;;;6.57;2.95;;;;;;;15.57;52.26;99462.66;2618874;54;20038;-65
2022/06/14 06:09:23;;;;;;;7.43;3.42;;;;;;;15.70;51.67;99467.16;2623530;54;20037;-64
2022/06/14 06:11:57;;;;;;;8.60;2.83;;;;;;;15.85;50.30;99467.72;2620124;54;20026;-65
2022/06/14 06:14:33;;;;;;;5.65;3.03;;;;;;;15.88;50.06;99475.31;2618754;54;20033;-65
2022/06/14 06:17:07;;;;;;;3.88;2.60;;;;;;;15.90;49.83;99467.91;2618150;46;20031;-65
2022/06/14 06:19:43;;;;;;;4.72;2.60;;;;;;;15.94;50.77;99466.44;2619536;54;20026;-64
2022/06/14 06:22:21;;;;;;;5.90;2.65;;;;;;;16.13;49.70;99462.06;2619524;54;20042;-64
2022/06/14 06:24:57;;;;;;;5.65;2.50;;;;;;;15.98;48.85;99466.84;2619040;54;20048;-64
2022/06/14 06:27:33;;;;;;;4.07;2.53;;;;;;;15.88;49.72;99463.78;2618762;54;20034;-64
2022/06/14 06:30:12;;;;;;;5.97;2.80;;;;;;;15.91;49.91;99469.53;2618964;54;20042;-65
2022/06/14 06:32:43;;;;;;;5.18;2.60;;;;;;;16.09;49.31;99464.34;2618904;54;20026;-64
2022/06/14 06:35:14;;;;;;;8.00;2.85;;;;;;;16.33;49.45;99460.13;2618683;54;20026;-64
2022/06/14 06:37:52;;;;;;;3.97;2.53;;;;;;;16.50;49.06;99467.63;2618059;54;20034;-65
2022/06/14 06:40:25;;;;;;;6.60;2.67;;;;;;;16.63;48.71;99464.06;2619213;39;20454;-64
2022/06/14 06:43:01;;;;;;;5.75;2.92;;;;;;;16.72;48.27;99468.91;2618672;54;20030;-64
2022/06/14 06:45:33;;;;;;;5.15;2.63;;;;;;;16.72;48.08;99468.91;2618864;54;20030;-64
2022/06/14 06:48:11;;;;;;;6.10;2.30;;;;;;;16.82;47.85;99463.94;2619016;39;20420;-64
2022/06/14 06:50:46;;;;;;;5.18;2.15;;;;;;;16.84;47.89;99453.03;2619093;54;20038;-64
2022/06/14 06:53:20;;;;;;;6.75;2.50;;;;;;;16.93;47.68;99451.72;2619212;54;20034;-64
2022/06/14 06:55:55;;;;;;;9.50;2.03;;;;;;;17.08;47.11;99454.88;2620272;54;20039;-64
2022/06/14 18:57:08;;;;;;;4.35;2.58;;;;;;;24.94;26.61;98893.50;2586754;46;20029;-67
2022/06/14 18:59:40;;;;;;;;;;;;;;;24.79;26.89;98902.56;2618805;54;20056;-65
2022/06/14 19:02:38;;;;;;;6.88;2.85;;;;;;;24.68;27.37;98893.72;2618682;54;19939;-67
2022/06/14 19:05:34;;;;;;;4.47;2.92;;;;;;;24.50;27.78;98889.00;2618503;54;20030;-66
2022/06/14 19:08:11;;;;;;;9.05;2.90;;;;;;;24.35;27.98;98891.78;2618354;54;20030;-65
2022/06/14 19:10:57;;;;;;;7.13;2.65;;;;;;;24.26;28.26;98891.56;2618845;54;20034;-66
2022/06/14 19:13:45;;;;;;;5.45;2.72;;;;;;;24.13;28.63;98890.31;2618589;54;20045;-69
2022/06/14 19:16:28;;;;;;;7.53;3.20;;;;;;;24.00;28.81;98893.59;2619033;47;20027;-70
2022/06/14 19:19:18;;;;;;;3.92;3.05;;;;;;;23.93;29.25;98890.41;2619345;54;20059;-69
2022/06/14 19:22:18;;;;;;;4.07;3.10;;;;;;;23.83;29.56;98899.34;2619715;54;20105;-68
2022/06/14 19:25:06;;;;;;;6.30;2.80;;;;;;;23.77;29.49;98899.66;2619664;54;20030;-69
2022/06/14 19:27:49;;;;;;;4.50;2.80;;;;;;;23.69;29.80;98903.75;2619378;50;20018;-71
2022/06/14 19:30:25;;;;;;;5.72;2.83;;;;;;;23.59;30.12;98906.44;2620104;54;20034;-70
2022/06/14 19:32:59;;;;;;;5.03;3.00;;;;;;;23.55;30.57;98911.56;2620724;54;20032;-71
2022/06/14 19:35:33;;;;;;;5.18;2.72;;;;;;;23.45;30.25;98904.31;2620992;39;20399;-71
2022/06/14 19:38:07;;;;;;;4.38;3.05;;;;;;;23.43;30.86;98919.16;2620613;54;20045;-73
2022/06/14 19:40:41;;;;;;;3.90;2.50;;;;;;;23.31;30.55;98915.94;2624927;54;20039;-71
2022/06/14 19:43:18;;;;;;;6.15;3.33;;;;;;;23.21;30.95;98911.38;2626400;47;20031;-68
2022/06/14 19:46:05;;;;;;;6.30;2.67;;;;;;;23.10;31.39;98912.47;2626920;54;20103;-69
2022/06/14 19:51:19;;;;;;;5.43;2.60;;;;;;;22.92;31.67;98913.84;2626130;47;20034;-70
2022/06/14 19:53:49;;;;;;;3.72;2.53;;;;;;;22.85;31.89;98914.09;2629347;39;20356;-71
2022/06/14 19:56:20;;;;;;;3.25;2.40;;;;;;;22.70;32.36;98917.59;2625073;47;20026;-70
2022/06/14 19:58:55;;;;;;;5.93;3.33;;;;;;;22.60;32.37;98925.66;2629673;47;20022;-72
2022/06/14 20:01:34;;;;;;;3.88;2.85;;;;;;;22.52;32.37;98930.78;2630191;54;20597;-71
2022/06/14 20:04:16;;;;;;;5.20;2.90;;;;;;;22.45;32.45;98928.34;2630335;54;20090;-69
2022/06/14 20:06:57;;;;;;;4.93;2.50;;;;;;;22.38;32.59;98931.31;2630499;54;20042;-72
2022/06/14 20:09:29;;;;;;;5.80;2.97;;;;;;;22.30;32.94;98929.13;2630169;54;20054;-71
2022/06/14 20:12:00;;;;;;;4.63;2.58;;;;;;;22.28;33.32;98930.47;2629388;54;20058;-72
2022/06/14 20:14:32;;;;;;;4.78;2.90;;;;;;;22.23;33.60;98940.16;2628950;54;20086;-70
2022/06/14 20:17:10;;;;;;;3.30;2.70;;;;;;;22.14;33.96;98941.75;2629009;39;20474;-68
2022/06/14 20:19:50;;;;;;;7.45;2.72;;;;;;;22.10;33.83;98947.88;2628266;54;20294;-69
2022/06/14 20:22:23;;;;;;;3.25;2.30;;;;;;;22.04;33.80;98948.94;2627567;54;20026;-70
2022/06/14 20:24:53;;;;;;;5.55;2.50;;;;;;;22.08;34.06;98947.31;2627128;54;20082;-71
2022/06/14 20:27:23;;;;;;;6.10;2.40;;;;;;;22.05;34.17;98947.88;2625483;47;20034;-70
2022/06/14 20:29:56;;;;;;;4.93;2.70;;;;;;;21.98;34.55;98945.41;2626198;54;20034;-70
2022/06/14 20:32:38;;;;;;;3.58;2.45;;;;;;;21.94;34.54;98950.50;2627784;54;20022;-70
2022/06/14 20:35:11;;;;;;;4.03;2.78;;;;;;;21.91;34.27;98948.34;2629030;54;20022;-71
2022/06/14 20:37:52;;;;;;;5.20;2.70;;;;;;;21.83;34.59;98943.47;2628386;54;20042;-70
2022/06/14 20:40:23;;;;;;;4.35;3.00;;;;;;;21.77;34.88;98948.03;2629343;46;20322;-70
2022/06/14 20:42:53;;;;;;;4.20;2.80;;;;;;;21.80;35.23;98948.56;2625625;54;20574;-69
2022/06/14 20:45:27;;;;;;;5.72;2.78;;;;;;;21.78;35.17;98946.13;2625318;54;20035;-69
2022/06/14 20:47:59;;;;;;;5.00;2.95;;;;;;;21.69;35.10;98950.41;2625657;47;20038;-71
2022/06/14 20:50:38;;;;;;;14.17;12.17;;;;;;;21.65;35.52;98947.44;2625635;54;20036;-72
2022/06/14 20:53:10;;;;;;;13.45;9.90;;;;;;;21.60;35.62;98950.09;2626492;39;20459;-69
2022/06/14 20:55:42;;;;;;;5.60;3.95;;;;;;;21.55;35.64;98960.00;2623845;54;20034;-69
2022/06/14 20:58:13;;;;;;;5.07;2.73;;;;;;;21.48;36.27;98961.06;2623691;39;20403;-67
2022/06/14 21:00:44;;;;;;;5.57;3.17;;;;;;;21.39;37.02;98959.94;2622682;54;20118;-68
2022/06/14 21:03:19;;;;;;;6.20;3.50;;;;;;;21.37;37.00;98950.50;2622328;51;20063;-68
2022/06/14 21:05:49;;;;;;;5.03;3.60;;;;;;;21.26;37.31;98946.88;2622987;39;20466;-68
2022/06/14 21:08:24;;;;;;;3.83;3.33;;;;;;;21.28;37.62;98948.25;2624994;54;20106;-67
2022/06/14 21:13:52;;;;;;;6.90;3.47;;;;;;;21.18;38.47;98942.78;2621706;54;20045;-68
2022/06/14 21:16:24;;;;;;;5.03;3.40;;;;;;;21.13;38.67;98948.13;2622669;54;20037;-68
2022/06/14 21:19:06;;;;;;;7.00;3.65;;;;;;;20.87;39.05;98954.41;2624022;54;20029;-68
2022/06/14 21:21:37;;;;;;;5.45;3.30;;;;;;;20.80;39.17;98943.03;2621845;54;20030;-69
2022/06/14 21:24:12;;;;;;;5.28;2.90;;;;;;;20.74;39.44;98942.19;2620253;54;20034;-68
2022/06/14 21:26:45;;;;;;;3.90;3.00;;;;;;;20.68;39.95;98941.31;2623635;54;20049;-68
2022/06/14 21:29:14;;;;;;;4.45;3.05;;;;;;;20.62;40.20;98942.34;2623206;54;20030;-67
2022/06/14 21:31:59;;;;;;;5.53;2.95;;;;;;;20.58;40.40;98951.19;2625080;54;20037;-68
2022/06/14 21:34:33;;;;;;;5.57;2.90;;;;;;;20.60;40.20;98955.22;2621856;54;20038;-69
2022/06/14 21:37:04;;;;;;;4.07;3.20;;;;;;;20.46;41.02;98954.00;2620673;54;20034;-69
2022/06/14 21:39:42;;;;;;;6.07;3.15;;;;;;;20.29;41.35;98954.88;2621096;54;20041;-69
2022/06/14 21:42:21;;;;;;;;;;;;;;;20.21;41.22;98954.53;2621351;54;20030;-68
2022/06/14 21:44:52;;;;;;;4.00;2.83;;;;;;;20.15;41.49;98959.00;2621721;54;19947;-67
2022/06/14 21:47:28;;;;;;;4.93;3.13;;;;;;;20.07;41.96;98955.97;2621241;54;20030;-68
2022/06/14 21:50:03;;;;;;;4.60;3.15;;;;;;;20.07;41.88;98950.59;2622092;54;20030;-68
2022/06/14 21:52:37;;;;;;;7.43;3.22;;;;;;;19.96;41.97;98950.50;2623141;39;20257;-68
2022/06/14 21:55:09;;;;;;;5.95;3.55;;;;;;;19.82;42.55;98954.59;2622030;54;20045;-67
2022/06/14 21:57:46;;;;;;;8.43;5.15;;;;;;;19.78;42.84;98961.50;2622521;54;20038;-70
2022/06/14 22:03:23;;;;;;;5.97;3.33;;;;;;;19.65;43.45;98968.06;2600605;54;20056;-68
2022/06/14 22:05:57;;;;;;;3.88;2.70;;;;;;;19.60;43.45;98962.59;2618900;54;20026;-69
2022/06/14 22:08:27;;;;;;;7.20;2.90;;;;;;;19.45;43.83;98973.91;2618076;54;20034;-68
2022/06/14 22:10:59;;;;;;;3.50;2.55;;;;;;;19.40;43.99;98968.47;2619599;39;20078;-67
2022/06/14 22:13:33;;;;;;;4.53;2.88;;;;;;;19.48;43.24;98972.59;2618638;54;20076;-68
2022/06/14 22:16:03;;;;;;;4.45;2.90;;;;;;;19.51;43.26;98964.88;2617942;54;20033;-66
2022/06/14 22:18:33;;;;;;;3.50;2.72;;;;;;;19.48;43.56;98972.59;2618535;54;20031;-66
2022/06/14 22:21:05;;;;;;;6.60;2.90;;;;;;;19.43;43.34;98969.84;2619224;54;20025;-65
2022/06/14 22:24:38;;;;;;;4.82;2.60;;;;;;;19.36;43.63;98969.22;2619299;54;20030;-65
2022/06/14 22:26:26;;;;;;;4.88;2.70;;;;;;;19.33;43.96;98973.19;2619276;54;20050;-66
2022/06/14 22:28:56;;;;;;;4.60;2.47;;;;;;;19.27;43.76;98977.66;2619284;54;20030;-67
2022/06/14 22:31:26;;;;;;;2.78;2.53;;;;;;;19.16;43.87;98967.03;2618950;54;20081;-65
2022/06/14 22:33:55;;;;;;;3.08;2.40;;;;;;;19.11;44.01;98972.31;2620119;39;20404;-66
2022/06/14 22:36:25;;;;;;;3.17;2.72;;;;;;;19.07;43.86;98971.19;2619246;54;20027;-66
2022/06/14 22:38:57;;;;;;;5.78;2.50;;;;;;;19.10;44.07;98965.31;2619006;54;20065;-66
2022/06/14 22:41:28;;;;;;;4.47;2.55;;;;;;;18.96;44.16;98970.19;2620053;39;20426;-67
2022/06/14 22:43:59;;;;;;;4.05;2.92;;;;;;;18.91;44.32;98965.56;2619752;54;20030;-68
2022/06/14 22:46:30;;;;;;;4.05;2.40;;;;;;;18.73;45.02;98969.25;2619965;54;20030;-67
2022/06/14 22:48:59;;;;;;;4.93;2.72;;;;;;;18.64;45.09;98969.88;2618567;47;20026;-67
2022/06/14 22:51:29;;;;;;;3.65;2.67;;;;;;;18.63;45.25;98978.97;2619397;54;20042;-67
2022/06/14 22:54:01;;;;;;;4.65;2.50;;;;;;;18.65;44.88;98974.19;2618752;47;20046;-67
2022/06/14 22:56:31;;;;;;;5.38;2.70;;;;;;;18.67;45.02;98974.75;2618754;47;20035;-67
2022/06/14 22:59:01;;;;;;;6.22;3.15;;;;;;;18.63;44.83;98970.94;2619175;54;20035;-67
2022/06/14 23:01:31;;;;;;;5.47;2.60;;;;;;;18.64;45.01;98965.34;2619148;54;20041;-66
2022/06/14 23:04:00;;;;;;;5.40;2.90;;;;;;;18.48;45.00;98964.25;2619292;54;20027;-66
2022/06/14 23:06:31;;;;;;;2.95;2.50;;;;;;;18.31;45.84;98972.22;2619067;54;20019;-66
2022/06/14 23:09:04;;;;;;;4.22;3.05;;;;;;;18.18;46.00;98971.72;2618717;54;20553;-67
2022/06/14 23:11:33;;;;;;;5.63;3.00;;;;;;;18.18;46.24;98964.50;2619092;54;20057;-67
2022/06/14 23:14:03;;;;;;;5.43;3.25;;;;;;;18.24;45.90;98966.19;2619351;54;20046;-66
2022/06/14 23:16:33;;;;;;;4.85;3.03;;;;;;;18.15;46.25;98964.16;2619626;39;20422;-67
2022/06/14 23:19:02;;;;;;;5.72;3.47;;;;;;;18.03;46.48;98961.50;2618954;54;20539;-68
2022/06/14 23:21:34;;;;;;;7.15;3.85;;;;;;;18.00;46.58;98962.81;2618652;54;20033;-67
2022/06/14 23:24:07;;;;;;;4.68;3.22;;;;;;;17.86;47.25;98957.94;2618841;54;20034;-67
2022/06/14 23:26:37;;;;;;;3.30;2.70;;;;;;;17.73;47.48;98953.66;2619324;54;20027;-68
2022/06/14 23:29:08;;;;;;;6.00;3.10;;;;;;;17.63;47.33;98951.56;2618491;47;20027;-68
2022/06/14 23:31:37;;;;;;;3.35;3.05;;;;;;;17.55;47.50;98951.91;2619663;54;20038;-67
2022/06/14 23:34:07;;;;;;;7.00;3.22;;;;;;;17.45;47.66;98946.34;2619926;39;20419;-68
2022/06/14 23:36:37;;;;;;;5.10;2.90;;;;;;;17.40;47.86;98948.91;2619306;54;20027;-68
2022/06/14 23:39:15;;;;;;;3.53;3.05;;;;;;;17.37;48.41;98944.03;2618960;54;20033;-68
2022/06/14 23:41:45;;;;;;;4.75;3.42;;;;;;;17.45;48.43;98944.50;2621965;47;20034;-69
2022/06/14 23:44:16;;;;;;;9.50;3.70;;;;;;;17.46;48.13;98947.97;2620767;54;20030;-68
2022/06/14 23:46:46;;;;;;;4.57;4.00;;;;;;;17.48;48.66;98944.03;2619353;39;20350;-68
2022/06/14 23:49:16;;;;;;;8.40;4.60;;;;;;;17.47;48.31;98946.91;2619127;54;20018;-69
2022/06/14 23:51:45;;;;;;;4.53;3.08;;;;;;;17.37;48.90;98941.38;2619441;54;20034;-69
2022/06/14 23:54:18;;;;;;;6.97;3.47;;;;;;;17.38;48.91;98934.97;2619205;54;20031;-69
2022/06/14 23:56:47;;;;;;;5.82;3.65;;;;;;;17.34;48.84;98938.09;2619518;54;20026;-67
2022/06/14 23:59:17;;;;;;;6.53;3.70;;;;;;;17.33;49.32;98939.16;2619663;54;20107;-67
